createdAt,value
2023-03-26T00:00:42.237Z,53.50
2023-03-26T00:01:42.122Z,33.30
2023-03-26T00:02:42.075Z,32.20
2023-03-26T00:03:41.986Z,32.20
2023-03-26T00:05:02.910Z,44.70
2023-03-26T00:05:41.934Z,40.60
2023-03-26T00:06:41.818Z,47.80
2023-03-26T00:07:41.756Z,42.00
2023-03-26T00:08:41.705Z,51.70
2023-03-26T00:09:41.655Z,45.10
2023-03-26T00:10:41.568Z,51.30
2023-03-26T00:11:41.546Z,48.70
2023-03-26T00:12:41.418Z,43.10
2023-03-26T00:13:41.368Z,35.50
2023-03-26T00:14:41.311Z,36.00
2023-03-26T00:15:41.238Z,55.70
2023-03-26T00:16:41.266Z,51.00
2023-03-26T00:17:41.233Z,47.20
2023-03-26T00:18:41.121Z,36.10
2023-03-26T00:19:40.986Z,45.00
2023-03-26T00:20:40.966Z,43.70
2023-03-26T00:21:40.914Z,53.00
2023-03-26T00:22:40.843Z,49.80
2023-03-26T00:23:40.749Z,52.70
2023-03-26T00:24:40.670Z,41.20
2023-03-26T00:25:40.682Z,59.70
2023-03-26T00:26:40.583Z,59.50
2023-03-26T00:27:40.532Z,48.20
2023-03-26T00:28:40.692Z,53.20
2023-03-26T00:29:40.363Z,49.40
2023-03-26T00:30:40.306Z,46.60
2023-03-26T00:31:40.225Z,59.80
2023-03-26T00:32:40.199Z,76.70
2023-03-26T00:33:40.139Z,59.90
2023-03-26T00:34:40.062Z,54.40
2023-03-26T00:35:40.036Z,55.20
2023-03-26T00:36:39.959Z,60.90
2023-03-26T00:37:39.858Z,55.60
2023-03-26T00:38:39.870Z,45.10
2023-03-26T00:39:39.738Z,39.60
2023-03-26T00:40:39.769Z,37.50
2023-03-26T00:41:39.607Z,44.80
2023-03-26T00:42:39.553Z,42.90
2023-03-26T00:43:39.492Z,31.70
2023-03-26T00:44:39.450Z,26.50
2023-03-26T00:45:39.372Z,26.40
2023-03-26T00:46:39.339Z,25.60
2023-03-26T00:47:39.280Z,20.00
2023-03-26T00:49:39.130Z,25.30
2023-03-26T00:50:39.070Z,18.40
2023-03-26T00:51:39.214Z,18.50
2023-03-26T00:52:38.959Z,21.00
2023-03-26T00:53:39.739Z,12.00
2023-03-26T00:54:38.857Z,16.70
2023-03-26T00:55:38.732Z,12.10
2023-03-26T00:56:39.019Z,11.60
2023-03-26T00:57:38.625Z,10.90
2023-03-26T00:58:59.548Z,14.10
2023-03-26T00:59:38.549Z,13.50
2023-03-26T01:00:38.414Z,13.70
2023-03-26T01:01:39.251Z,11.20
2023-03-26T01:02:38.364Z,17.10
2023-03-26T01:03:38.339Z,16.00
2023-03-26T01:04:38.296Z,8.70
2023-03-26T01:05:38.156Z,9.50
2023-03-26T01:06:38.076Z,9.70
2023-03-26T01:07:38.003Z,8.20
2023-03-26T01:08:37.939Z,8.30
2023-03-26T01:09:37.883Z,8.20
2023-03-26T01:10:37.833Z,8.50
2023-03-26T01:11:37.785Z,7.50
2023-03-26T01:12:37.675Z,7.20
2023-03-26T01:13:37.572Z,8.60
2023-03-26T01:14:37.530Z,8.90
2023-03-26T01:15:37.619Z,8.10
2023-03-26T01:16:37.393Z,7.40
2023-03-26T01:17:37.353Z,7.80
2023-03-26T01:18:37.257Z,8.60
2023-03-26T01:19:37.288Z,8.10
2023-03-26T01:20:37.150Z,8.00
2023-03-26T01:21:37.129Z,9.10
2023-03-26T01:22:37.084Z,7.20
2023-03-26T01:23:36.960Z,8.20
2023-03-26T01:24:36.966Z,8.10
2023-03-26T01:25:36.846Z,9.10
2023-03-26T01:26:36.803Z,8.00
2023-03-26T01:27:36.708Z,8.10
2023-03-26T01:28:36.700Z,8.10
2023-03-26T01:29:36.617Z,7.10
2023-03-26T01:30:36.553Z,7.90
2023-03-26T01:31:36.458Z,7.80
2023-03-26T01:32:36.507Z,8.10
2023-03-26T01:33:36.473Z,8.20
2023-03-26T01:36:15.282Z,8.70
2023-03-26T01:37:16.251Z,9.10
2023-03-26T01:38:16.192Z,9.50
2023-03-26T01:39:16.103Z,9.50
2023-03-26T01:40:16.008Z,9.30
2023-03-26T01:41:16.062Z,9.30
2023-03-26T01:42:15.892Z,9.00
2023-03-26T01:43:15.832Z,9.20
2023-03-26T01:44:15.791Z,8.50
2023-03-26T01:45:15.757Z,9.90
2023-03-26T01:46:15.706Z,9.00
2023-03-26T01:47:15.643Z,9.50
2023-03-26T01:48:15.572Z,8.40
2023-03-26T01:49:15.486Z,7.70
2023-03-26T01:50:15.391Z,10.20
2023-03-26T01:51:15.350Z,7.70
2023-03-26T01:52:15.291Z,8.30
2023-03-26T01:53:15.248Z,7.50
2023-03-26T01:54:15.194Z,7.00
2023-03-26T01:55:15.141Z,7.80
2023-03-26T01:56:15.016Z,8.30
2023-03-26T01:57:15.008Z,8.10
2023-03-26T01:58:14.962Z,8.20
2023-03-26T01:59:14.885Z,8.70
2023-03-26T02:00:14.812Z,8.40
2023-03-26T02:01:15.250Z,9.00
2023-03-26T02:02:14.767Z,9.20
2023-03-26T02:03:14.702Z,9.00
2023-03-26T02:04:14.567Z,8.30
2023-03-26T02:05:14.488Z,9.20
2023-03-26T02:06:14.443Z,9.20
2023-03-26T02:07:14.376Z,9.70
2023-03-26T02:08:14.293Z,9.50
2023-03-26T02:09:14.225Z,8.80
2023-03-26T02:10:14.134Z,9.20
2023-03-26T02:11:35.869Z,9.00
2023-03-26T02:12:14.066Z,9.40
2023-03-26T02:13:13.966Z,10.70
2023-03-26T02:14:13.915Z,9.20
2023-03-26T02:15:13.873Z,8.70
2023-03-26T02:16:13.818Z,8.70
2023-03-26T02:17:13.766Z,14.40
2023-03-26T02:18:13.678Z,8.30
2023-03-26T02:19:13.601Z,7.80
2023-03-26T02:20:13.557Z,7.60
2023-03-26T02:21:13.511Z,8.40
2023-03-26T02:22:13.459Z,8.10
2023-03-26T02:23:13.407Z,7.80
2023-03-26T02:24:13.320Z,7.60
2023-03-26T02:25:13.292Z,8.30
2023-03-26T02:26:13.189Z,8.20
2023-03-26T02:27:13.122Z,8.10
2023-03-26T02:28:13.070Z,8.60
2023-03-26T02:29:33.976Z,8.00
2023-03-26T02:30:12.942Z,7.30
2023-03-26T02:31:12.945Z,7.30
2023-03-26T02:32:12.786Z,7.20
2023-03-26T02:33:12.790Z,7.80
2023-03-26T02:34:12.652Z,7.20
2023-03-26T02:35:12.858Z,6.90
2023-03-26T02:36:12.635Z,7.10
2023-03-26T02:37:12.534Z,7.50
2023-03-26T02:38:12.485Z,8.00
2023-03-26T02:39:12.381Z,7.70
2023-03-26T02:40:12.326Z,8.00
2023-03-26T02:41:12.334Z,7.20
2023-03-26T02:42:12.226Z,6.80
2023-03-26T02:43:12.166Z,7.20
2023-03-26T02:44:12.034Z,7.20
2023-03-26T02:45:12.011Z,7.00
2023-03-26T02:46:12.012Z,7.40
2023-03-26T02:48:21.079Z,7.40
2023-03-26T02:49:22.038Z,7.00
2023-03-26T02:50:21.955Z,6.80
2023-03-26T02:51:21.927Z,7.20
2023-03-26T02:52:21.836Z,7.10
2023-03-26T02:53:21.788Z,7.40
2023-03-26T02:54:21.703Z,7.10
2023-03-26T02:55:21.651Z,7.70
2023-03-26T02:56:21.574Z,7.40
2023-03-26T02:57:21.482Z,7.30
2023-03-26T02:58:21.419Z,7.50
2023-03-26T02:59:21.426Z,8.00
2023-03-26T03:00:21.320Z,7.30
2023-03-26T03:01:21.303Z,8.30
2023-03-26T03:02:21.243Z,8.50
2023-03-26T03:03:21.177Z,9.50
2023-03-26T03:04:21.047Z,10.90
2023-03-26T03:07:00.029Z,16.80
2023-03-26T03:08:00.941Z,14.00
2023-03-26T03:09:00.922Z,12.10
2023-03-26T03:10:00.818Z,15.80
2023-03-26T03:12:09.943Z,28.50
2023-03-26T03:13:10.941Z,24.00
2023-03-26T03:14:10.809Z,21.00
2023-03-26T03:15:10.755Z,22.50
2023-03-26T03:16:10.811Z,41.30
2023-03-26T03:17:10.642Z,38.60
2023-03-26T03:18:10.604Z,59.80
2023-03-26T03:19:10.524Z,56.90
2023-03-26T03:20:10.452Z,51.00
2023-03-26T03:21:10.426Z,53.20
2023-03-26T03:22:10.313Z,57.50
2023-03-26T03:23:10.302Z,51.30
2023-03-26T03:24:10.199Z,59.60
2023-03-26T03:25:10.144Z,51.80
2023-03-26T03:26:10.136Z,61.10
2023-03-26T03:27:10.020Z,48.50
2023-03-26T03:28:09.973Z,48.80
2023-03-26T03:29:09.964Z,35.60
2023-03-26T03:30:09.853Z,34.70
2023-03-26T03:31:09.866Z,27.20
2023-03-26T03:32:09.735Z,21.20
2023-03-26T03:33:09.613Z,40.60
2023-03-26T03:34:09.641Z,33.20
2023-03-26T03:35:09.509Z,33.80
2023-03-26T03:36:09.494Z,25.10
2023-03-26T03:37:09.433Z,26.80
2023-03-26T03:38:09.362Z,26.20
2023-03-26T03:39:09.291Z,28.70
2023-03-26T03:40:09.204Z,22.90
2023-03-26T03:41:30.154Z,29.90
2023-03-26T03:42:09.145Z,22.30
2023-03-26T03:43:09.050Z,42.50
2023-03-26T03:44:09.030Z,24.20
2023-03-26T03:45:08.940Z,25.00
2023-03-26T03:46:08.906Z,17.60
2023-03-26T03:47:08.854Z,22.90
2023-03-26T03:48:08.837Z,26.20
2023-03-26T03:49:08.640Z,21.10
2023-03-26T03:50:08.614Z,27.60
2023-03-26T03:51:08.558Z,34.10
2023-03-26T03:52:08.523Z,29.50
2023-03-26T03:53:08.441Z,22.20
2023-03-26T03:54:08.938Z,18.20
2023-03-26T03:55:08.248Z,31.20
2023-03-26T03:56:08.234Z,20.20
2023-03-26T03:57:08.200Z,21.40
2023-03-26T03:58:08.129Z,25.80
2023-03-26T03:59:08.058Z,13.20
2023-03-26T04:00:08.016Z,11.80
2023-03-26T04:01:07.977Z,13.60
2023-03-26T04:02:07.825Z,15.80
2023-03-26T04:03:07.856Z,11.30
2023-03-26T04:04:07.771Z,11.60
2023-03-26T04:05:08.434Z,10.20
2023-03-26T04:06:07.647Z,10.00
2023-03-26T04:07:07.526Z,10.90
2023-03-26T04:08:07.521Z,11.20
2023-03-26T04:09:07.425Z,19.90
2023-03-26T04:10:07.364Z,10.80
2023-03-26T04:11:07.319Z,10.60
2023-03-26T04:12:07.234Z,10.30
2023-03-26T04:13:07.171Z,10.20
2023-03-26T04:14:07.071Z,10.80
2023-03-26T04:15:07.053Z,10.50
2023-03-26T04:16:07.055Z,10.00
2023-03-26T04:17:06.899Z,10.00
2023-03-26T04:18:06.906Z,10.40
2023-03-26T04:19:06.799Z,9.70
2023-03-26T04:20:06.787Z,10.60
2023-03-26T04:21:06.677Z,10.70
2023-03-26T04:22:06.590Z,13.40
2023-03-26T04:23:06.569Z,15.10
2023-03-26T04:24:06.465Z,11.00
2023-03-26T04:25:06.376Z,10.40
2023-03-26T04:26:06.314Z,11.90
2023-03-26T04:27:06.298Z,10.50
2023-03-26T04:28:06.253Z,10.90
2023-03-26T04:29:06.149Z,14.90
2023-03-26T04:30:06.086Z,11.60
2023-03-26T04:31:06.095Z,11.40
2023-03-26T04:32:05.962Z,10.40
2023-03-26T04:33:05.971Z,14.20
2023-03-26T04:34:05.859Z,16.70
2023-03-26T04:35:05.773Z,13.10
2023-03-26T04:36:05.741Z,11.20
2023-03-26T04:37:05.644Z,11.40
2023-03-26T04:38:05.613Z,14.40
2023-03-26T04:39:05.610Z,11.40
2023-03-26T04:40:05.438Z,12.00
2023-03-26T04:41:05.438Z,15.00
2023-03-26T04:42:05.334Z,12.40
2023-03-26T04:43:05.314Z,13.40
2023-03-26T04:44:05.226Z,13.50
2023-03-26T04:45:05.209Z,19.60
2023-03-26T04:46:05.037Z,12.70
2023-03-26T04:47:05.090Z,19.10
2023-03-26T04:48:05.031Z,23.40
2023-03-26T04:49:04.887Z,20.60
2023-03-26T04:50:04.890Z,17.40
2023-03-26T04:51:04.726Z,31.60
2023-03-26T04:52:04.752Z,17.90
2023-03-26T04:53:04.649Z,20.70
2023-03-26T04:54:04.567Z,12.50
2023-03-26T04:55:04.490Z,14.40
2023-03-26T04:56:04.435Z,16.90
2023-03-26T04:57:04.441Z,13.60
2023-03-26T04:58:04.283Z,23.90
2023-03-26T04:59:04.218Z,19.30
2023-03-26T05:00:04.193Z,14.90
2023-03-26T05:01:10.338Z,19.00
2023-03-26T05:02:04.081Z,15.70
2023-03-26T05:03:03.979Z,19.10
2023-03-26T05:04:03.950Z,20.50
2023-03-26T05:05:03.894Z,21.60
2023-03-26T05:06:03.799Z,21.60
2023-03-26T05:07:03.760Z,16.60
2023-03-26T05:08:03.656Z,16.00
2023-03-26T05:09:03.623Z,25.40
2023-03-26T05:10:03.625Z,18.50
2023-03-26T05:11:03.508Z,22.80
2023-03-26T05:12:03.410Z,13.30
2023-03-26T05:13:03.361Z,16.50
2023-03-26T05:14:03.281Z,11.80
2023-03-26T05:15:03.261Z,22.10
2023-03-26T05:16:03.181Z,27.10
2023-03-26T05:17:03.132Z,18.20
2023-03-26T05:18:03.081Z,18.80
2023-03-26T05:19:02.999Z,18.70
2023-03-26T05:20:02.912Z,12.40
2023-03-26T05:21:02.881Z,27.10
2023-03-26T05:22:02.819Z,16.20
2023-03-26T05:23:02.750Z,27.70
2023-03-26T05:24:02.697Z,20.50
2023-03-26T05:25:02.599Z,33.70
2023-03-26T05:26:02.544Z,23.00
2023-03-26T05:27:02.448Z,23.40
2023-03-26T05:28:02.437Z,29.90
2023-03-26T05:29:02.348Z,28.60
2023-03-26T05:30:02.316Z,34.00
2023-03-26T05:31:02.227Z,29.70
2023-03-26T05:32:02.139Z,26.90
2023-03-26T05:33:02.235Z,28.40
2023-03-26T05:34:02.101Z,37.60
2023-03-26T05:35:01.982Z,41.70
2023-03-26T05:36:01.977Z,27.00
2023-03-26T05:37:01.891Z,38.20
2023-03-26T05:38:01.800Z,43.30
2023-03-26T05:39:01.732Z,31.20
2023-03-26T05:40:01.714Z,29.70
2023-03-26T05:41:01.634Z,29.30
2023-03-26T05:42:01.564Z,23.10
2023-03-26T05:43:01.486Z,36.10
2023-03-26T05:44:01.466Z,23.00
2023-03-26T05:45:01.416Z,33.00
2023-03-26T05:46:01.318Z,29.40
2023-03-26T05:47:01.233Z,36.40
2023-03-26T05:48:01.251Z,30.00
2023-03-26T05:49:01.121Z,24.10
2023-03-26T05:50:01.047Z,25.00
2023-03-26T05:51:00.988Z,32.40
2023-03-26T05:52:00.923Z,32.60
2023-03-26T05:53:00.846Z,25.10
2023-03-26T05:54:00.817Z,26.50
2023-03-26T05:55:00.739Z,41.50
2023-03-26T05:56:00.671Z,32.00
2023-03-26T05:57:00.667Z,28.10
2023-03-26T05:58:00.542Z,30.90
2023-03-26T05:59:00.461Z,23.10
2023-03-26T06:00:00.455Z,33.30
2023-03-26T06:01:00.386Z,39.60
2023-03-26T06:02:00.327Z,29.10
2023-03-26T06:03:00.458Z,29.70
2023-03-26T06:04:00.356Z,27.80
2023-03-26T06:05:00.155Z,39.60
2023-03-26T06:06:00.059Z,38.60
2023-03-26T06:07:00.014Z,35.10
2023-03-26T06:07:59.936Z,35.90
2023-03-26T06:09:02.041Z,34.30
2023-03-26T06:09:59.804Z,32.80
2023-03-26T06:10:59.761Z,21.60
2023-03-26T06:11:59.644Z,29.10
2023-03-26T06:12:59.634Z,31.70
2023-03-26T06:13:59.567Z,36.60
2023-03-26T06:14:59.462Z,30.20
2023-03-26T06:15:59.419Z,36.20
2023-03-26T06:16:59.441Z,32.10
2023-03-26T06:17:59.371Z,34.90
2023-03-26T06:18:59.346Z,33.30
2023-03-26T06:19:59.918Z,28.40
2023-03-26T06:20:59.118Z,36.40
2023-03-26T06:21:59.037Z,40.80
2023-03-26T06:22:59.025Z,34.80
2023-03-26T06:23:58.926Z,35.40
2023-03-26T06:24:58.858Z,32.40
2023-03-26T06:25:58.807Z,42.80
2023-03-26T06:26:58.761Z,38.60
2023-03-26T06:27:58.729Z,23.10
2023-03-26T06:28:58.617Z,38.30
2023-03-26T06:29:58.559Z,32.20
2023-03-26T06:30:58.494Z,29.60
2023-03-26T06:32:09.053Z,37.40
2023-03-26T06:32:58.377Z,35.80
2023-03-26T06:33:58.364Z,36.30
2023-03-26T06:34:58.274Z,26.40
2023-03-26T06:35:58.240Z,34.50
2023-03-26T06:36:58.144Z,34.80
2023-03-26T06:37:58.089Z,42.20
2023-03-26T06:38:58.016Z,26.50
2023-03-26T06:39:57.922Z,21.10
2023-03-26T06:41:18.887Z,33.90
2023-03-26T06:41:57.834Z,29.90
2023-03-26T06:43:07.787Z,20.10
2023-03-26T06:43:57.689Z,29.10
2023-03-26T06:44:57.619Z,28.30
2023-03-26T06:45:57.539Z,24.90
2023-03-26T06:46:57.613Z,26.60
2023-03-26T06:47:57.441Z,30.80
2023-03-26T06:48:57.389Z,29.30
2023-03-26T06:49:57.311Z,29.10
2023-03-26T06:50:57.220Z,23.10
2023-03-26T06:51:57.185Z,28.00
2023-03-26T06:52:57.137Z,24.30
2023-03-26T06:53:57.120Z,39.10
2023-03-26T06:54:56.999Z,24.10
2023-03-26T06:55:56.996Z,31.40
2023-03-26T06:56:56.953Z,30.10
2023-03-26T06:57:56.836Z,29.80
2023-03-26T07:00:35.676Z,19.50
2023-03-26T07:01:36.681Z,32.90
2023-03-26T07:02:36.635Z,30.60
2023-03-26T07:03:36.530Z,23.20
2023-03-26T07:04:36.506Z,26.60
2023-03-26T07:05:36.368Z,35.40
2023-03-26T07:06:36.334Z,20.90
2023-03-26T07:07:36.262Z,25.70
2023-03-26T07:08:36.174Z,29.40
2023-03-26T07:09:36.116Z,34.00
2023-03-26T07:10:36.043Z,25.30
2023-03-26T07:11:36.024Z,24.40
2023-03-26T07:12:35.948Z,20.30
2023-03-26T07:13:35.856Z,27.10
2023-03-26T07:14:35.824Z,24.40
2023-03-26T07:15:35.743Z,24.80
2023-03-26T07:16:35.794Z,19.50
2023-03-26T07:17:36.252Z,23.60
2023-03-26T07:18:35.552Z,28.40
2023-03-26T07:19:35.501Z,26.70
2023-03-26T07:20:35.410Z,37.30
2023-03-26T07:21:35.340Z,22.60
2023-03-26T07:22:35.321Z,25.50
2023-03-26T07:23:35.226Z,25.70
2023-03-26T07:24:35.197Z,39.10
2023-03-26T07:25:35.103Z,26.50
2023-03-26T07:26:35.044Z,33.80
2023-03-26T07:27:35.004Z,22.30
2023-03-26T07:28:34.928Z,32.30
2023-03-26T07:29:34.860Z,29.90
2023-03-26T07:30:34.814Z,24.10
2023-03-26T07:31:34.879Z,22.80
2023-03-26T07:32:34.720Z,32.70
2023-03-26T07:33:34.627Z,27.80
2023-03-26T07:34:34.565Z,28.40
2023-03-26T07:35:34.476Z,21.50
2023-03-26T07:36:34.598Z,28.00
2023-03-26T07:37:34.343Z,24.10
2023-03-26T07:38:34.278Z,21.90
2023-03-26T07:39:34.206Z,24.10
2023-03-26T07:40:34.944Z,29.40
2023-03-26T07:41:34.090Z,26.20
2023-03-26T07:42:34.019Z,25.40
2023-03-26T07:43:33.986Z,40.50
2023-03-26T07:44:35.607Z,31.50
2023-03-26T07:45:33.914Z,24.50
2023-03-26T07:46:33.829Z,29.30
2023-03-26T07:47:33.810Z,22.20
2023-03-26T07:48:33.683Z,33.30
2023-03-26T07:49:33.655Z,13.70
2023-03-26T07:50:33.575Z,34.20
2023-03-26T07:51:33.492Z,33.90
2023-03-26T07:53:02.511Z,24.50
2023-03-26T07:53:33.413Z,39.30
2023-03-26T07:54:33.265Z,39.40
2023-03-26T07:55:33.323Z,32.20
2023-03-26T07:56:33.170Z,35.60
2023-03-26T07:57:33.268Z,22.30
2023-03-26T07:58:33.886Z,29.90
2023-03-26T07:59:33.007Z,28.10
2023-03-26T08:00:32.930Z,37.90
2023-03-26T08:01:32.868Z,28.90
2023-03-26T08:02:33.732Z,25.60
2023-03-26T08:03:32.919Z,22.60
2023-03-26T08:04:32.782Z,30.00
2023-03-26T08:05:32.636Z,41.40
2023-03-26T08:06:32.569Z,28.60
2023-03-26T08:07:32.461Z,30.10
2023-03-26T08:08:32.428Z,36.50
2023-03-26T08:09:32.339Z,34.30
2023-03-26T08:10:32.369Z,18.50
2023-03-26T08:11:32.249Z,27.10
2023-03-26T08:12:32.176Z,40.90
2023-03-26T08:13:32.077Z,37.80
2023-03-26T08:14:32.058Z,29.10
2023-03-26T08:15:31.997Z,31.60
2023-03-26T08:16:31.954Z,35.80
2023-03-26T08:17:31.919Z,33.30
2023-03-26T08:18:31.805Z,32.50
2023-03-26T08:19:31.713Z,29.10
2023-03-26T08:20:31.650Z,40.00
2023-03-26T08:21:31.636Z,18.80
2023-03-26T08:27:30.289Z,29.50
2023-03-26T08:28:10.171Z,36.70
2023-03-26T08:29:10.105Z,33.40
2023-03-26T08:30:10.036Z,34.70
2023-03-26T08:31:10.023Z,38.90
2023-03-26T08:32:10.005Z,29.90
2023-03-26T08:34:19.045Z,21.30
2023-03-26T08:35:20.009Z,31.80
2023-03-26T08:36:19.894Z,29.80
2023-03-26T08:37:19.931Z,37.40
2023-03-26T08:38:19.800Z,28.70
2023-03-26T08:39:19.765Z,36.00
2023-03-26T08:40:19.631Z,28.40
2023-03-26T08:41:19.597Z,22.20
2023-03-26T08:42:19.561Z,28.50
2023-03-26T08:43:19.520Z,35.70
2023-03-26T08:44:19.396Z,25.00
2023-03-26T08:45:19.330Z,27.30
2023-03-26T08:46:19.342Z,35.80
2023-03-26T08:47:19.236Z,42.00
2023-03-26T08:48:19.201Z,36.70
2023-03-26T08:49:19.164Z,26.50
2023-03-26T08:50:19.066Z,33.70
2023-03-26T08:51:40.014Z,31.10
2023-03-26T08:52:18.881Z,33.00
2023-03-26T08:53:18.869Z,36.00
2023-03-26T08:54:18.794Z,35.10
2023-03-26T08:55:18.718Z,27.40
2023-03-26T08:56:18.641Z,31.60
2023-03-26T08:57:18.656Z,32.70
2023-03-26T08:58:18.527Z,33.60
2023-03-26T08:59:18.539Z,34.60
2023-03-26T09:00:18.403Z,17.10
2023-03-26T09:01:18.395Z,25.40
2023-03-26T09:02:18.248Z,33.70
2023-03-26T09:03:18.253Z,27.00
2023-03-26T09:04:18.207Z,19.80
2023-03-26T09:05:18.088Z,39.90
2023-03-26T09:06:18.037Z,26.80
2023-03-26T09:07:17.963Z,25.70
2023-03-26T09:08:17.900Z,26.40
2023-03-26T09:09:19.110Z,26.60
2023-03-26T09:10:17.756Z,33.40
2023-03-26T09:11:17.707Z,20.90
2023-03-26T09:12:17.622Z,21.70
2023-03-26T09:13:17.590Z,27.80
2023-03-26T09:14:18.047Z,32.20
2023-03-26T09:15:17.566Z,30.50
2023-03-26T09:16:17.444Z,32.30
2023-03-26T09:17:17.380Z,26.90
2023-03-26T09:18:17.300Z,34.40
2023-03-26T09:19:17.222Z,28.00
2023-03-26T09:20:17.158Z,26.10
2023-03-26T09:21:17.082Z,19.80
2023-03-26T09:22:17.037Z,32.90
2023-03-26T09:23:16.967Z,28.00
2023-03-26T09:24:16.932Z,24.10
2023-03-26T09:25:16.869Z,24.10
2023-03-26T09:26:16.776Z,35.10
2023-03-26T09:27:16.760Z,47.00
2023-03-26T09:28:16.659Z,16.40
2023-03-26T09:29:16.627Z,23.40
2023-03-26T09:30:16.535Z,27.00
2023-03-26T09:31:16.580Z,21.40
2023-03-26T09:32:16.407Z,28.60
2023-03-26T09:33:16.371Z,22.50
2023-03-26T09:34:16.257Z,26.30
2023-03-26T09:35:16.306Z,30.10
2023-03-26T09:36:16.160Z,29.10
2023-03-26T09:37:16.093Z,23.00
2023-03-26T09:38:16.043Z,42.50
2023-03-26T09:39:16.021Z,27.70
2023-03-26T09:40:15.882Z,26.00
2023-03-26T09:41:15.846Z,20.40
2023-03-26T09:42:15.800Z,21.20
2023-03-26T09:43:15.766Z,34.70
2023-03-26T09:44:15.689Z,30.10
2023-03-26T09:45:36.651Z,30.60
2023-03-26T09:46:15.629Z,23.40
2023-03-26T09:47:15.480Z,17.90
2023-03-26T09:48:15.437Z,30.40
2023-03-26T09:49:15.352Z,25.10
2023-03-26T09:50:15.266Z,26.20
2023-03-26T09:51:15.265Z,24.10
2023-03-26T09:52:15.188Z,41.70
2023-03-26T09:53:15.099Z,30.20
2023-03-26T09:54:15.046Z,31.20
2023-03-26T09:55:15.009Z,26.60
2023-03-26T09:56:14.944Z,26.80
2023-03-26T09:57:14.925Z,19.10
2023-03-26T09:58:14.781Z,18.00
2023-03-26T09:59:14.732Z,26.50
2023-03-26T10:00:14.665Z,25.60
2023-03-26T10:01:14.637Z,12.30
2023-03-26T10:02:14.555Z,21.10
2023-03-26T10:03:14.595Z,23.90
2023-03-26T10:04:14.393Z,20.90
2023-03-26T10:05:14.356Z,19.90
2023-03-26T10:06:14.316Z,21.30
2023-03-26T10:07:14.223Z,21.30
2023-03-26T10:08:14.224Z,23.50
2023-03-26T10:09:14.162Z,23.00
2023-03-26T10:10:14.063Z,25.10
2023-03-26T10:11:14.851Z,23.50
2023-03-26T10:12:14.568Z,24.40
2023-03-26T10:13:14.915Z,31.00
2023-03-26T10:14:13.773Z,20.60
2023-03-26T10:15:34.705Z,27.90
2023-03-26T10:16:13.745Z,22.00
2023-03-26T10:17:13.616Z,19.90
2023-03-26T10:18:27.539Z,19.70
2023-03-26T10:19:13.465Z,22.50
2023-03-26T10:20:13.437Z,22.00
2023-03-26T10:21:13.357Z,33.40
2023-03-26T10:22:13.297Z,29.10
2023-03-26T10:23:13.226Z,27.00
2023-03-26T10:24:13.173Z,24.90
2023-03-26T10:25:13.122Z,39.30
2023-03-26T10:26:13.066Z,27.30
2023-03-26T10:27:13.045Z,30.80
2023-03-26T10:28:12.952Z,20.80
2023-03-26T10:29:12.840Z,22.40
2023-03-26T10:30:12.796Z,32.20
2023-03-26T10:31:12.834Z,23.90
2023-03-26T10:32:12.661Z,34.10
2023-03-26T10:33:12.632Z,26.60
2023-03-26T10:34:29.322Z,22.00
2023-03-26T10:35:12.523Z,24.70
2023-03-26T10:36:13.058Z,29.70
2023-03-26T10:37:12.364Z,26.60
2023-03-26T10:38:12.371Z,30.20
2023-03-26T10:39:37.184Z,22.30
2023-03-26T10:40:12.165Z,15.80
2023-03-26T10:41:12.165Z,23.40
2023-03-26T10:42:12.110Z,27.80
2023-03-26T10:43:12.491Z,21.50
2023-03-26T10:44:11.974Z,26.80
2023-03-26T10:45:11.937Z,24.70
2023-03-26T10:46:11.884Z,27.60
2023-03-26T10:47:11.785Z,38.10
2023-03-26T10:48:11.663Z,20.70
2023-03-26T10:49:11.611Z,26.80
2023-03-26T10:50:11.573Z,27.80
2023-03-26T10:51:11.495Z,18.40
2023-03-26T10:52:11.447Z,30.40
2023-03-26T10:53:11.358Z,33.30
2023-03-26T10:54:11.376Z,26.70
2023-03-26T10:55:11.284Z,22.20
2023-03-26T10:56:11.228Z,37.40
2023-03-26T10:57:32.089Z,27.70
2023-03-26T10:58:11.080Z,28.70
2023-03-26T10:59:11.061Z,39.60
2023-03-26T11:00:10.901Z,27.50
2023-03-26T11:01:10.863Z,30.10
2023-03-26T11:02:10.825Z,65.00
2023-03-26T11:03:10.811Z,41.90
2023-03-26T11:04:10.705Z,52.10
2023-03-26T11:05:10.620Z,49.90
2023-03-26T11:06:10.578Z,34.80
2023-03-26T11:07:10.524Z,37.70
2023-03-26T11:08:10.428Z,52.00
2023-03-26T11:09:10.436Z,72.90
2023-03-26T11:10:10.299Z,61.50
2023-03-26T11:11:10.262Z,71.20
2023-03-26T11:12:25.639Z,58.80
2023-03-26T11:13:10.155Z,57.20
2023-03-26T11:14:10.057Z,66.80
2023-03-26T11:15:31.094Z,69.20
2023-03-26T11:16:10.015Z,58.40
2023-03-26T11:17:09.887Z,69.60
2023-03-26T11:18:09.882Z,59.50
2023-03-26T11:19:09.747Z,47.40
2023-03-26T11:20:09.677Z,77.40
2023-03-26T11:21:19.207Z,49.80
2023-03-26T11:22:09.533Z,57.70
2023-03-26T11:23:09.557Z,66.40
2023-03-26T11:24:09.462Z,66.30
2023-03-26T11:25:09.368Z,63.60
2023-03-26T11:26:09.391Z,54.10
2023-03-26T11:27:14.433Z,53.70
2023-03-26T11:28:09.185Z,42.00
2023-03-26T11:29:32.768Z,58.50
2023-03-26T11:30:09.033Z,55.30
2023-03-26T11:31:09.066Z,49.90
2023-03-26T11:32:08.966Z,72.20
2023-03-26T11:34:47.802Z,46.30
2023-03-26T11:35:48.823Z,49.40
2023-03-26T11:36:48.656Z,70.80
2023-03-26T11:37:48.632Z,67.20
2023-03-26T11:38:48.554Z,54.50
2023-03-26T11:39:48.477Z,76.20
2023-03-26T11:40:48.389Z,64.50
2023-03-26T11:41:49.310Z,49.50
2023-03-26T11:42:48.293Z,48.10
2023-03-26T11:43:48.239Z,54.40
2023-03-26T11:44:48.185Z,49.40
2023-03-26T11:45:48.088Z,56.80
2023-03-26T11:46:48.127Z,60.60
2023-03-26T11:47:48.021Z,39.20
2023-03-26T11:48:48.831Z,43.50
2023-03-26T11:49:47.897Z,40.10
2023-03-26T11:52:26.733Z,20.00
2023-03-26T11:53:27.682Z,18.10
2023-03-26T11:54:27.567Z,30.30
2023-03-26T11:55:27.526Z,26.60
2023-03-26T11:56:27.511Z,26.30
2023-03-26T11:57:27.466Z,28.00
2023-03-26T11:58:27.346Z,21.60
2023-03-26T11:59:27.253Z,22.70
2023-03-26T12:00:27.266Z,15.70
2023-03-26T12:01:27.129Z,39.60
2023-03-26T12:02:27.177Z,16.00
2023-03-26T12:03:26.980Z,22.40
2023-03-26T12:04:27.827Z,26.80
2023-03-26T12:05:26.867Z,17.10
2023-03-26T12:06:27.304Z,25.40
2023-03-26T12:07:26.805Z,22.30
2023-03-26T12:08:47.752Z,24.10
2023-03-26T12:09:26.620Z,22.50
2023-03-26T12:10:26.548Z,23.10
2023-03-26T12:11:26.572Z,17.70
2023-03-26T12:12:26.500Z,19.00
2023-03-26T12:13:26.383Z,30.20
2023-03-26T12:14:26.400Z,30.70
2023-03-26T12:15:26.239Z,30.80
2023-03-26T12:16:26.255Z,25.90
2023-03-26T12:17:31.163Z,24.10
2023-03-26T12:18:26.062Z,19.50
2023-03-26T12:19:26.005Z,15.40
2023-03-26T12:20:25.989Z,12.00
2023-03-26T12:21:25.891Z,13.60
2023-03-26T12:22:25.830Z,11.70
2023-03-26T12:23:25.777Z,12.10
2023-03-26T12:24:25.712Z,10.50
2023-03-26T12:25:25.694Z,8.40
2023-03-26T12:26:25.678Z,7.80
2023-03-26T12:27:25.552Z,8.20
2023-03-26T12:28:25.468Z,7.60
2023-03-26T12:29:25.372Z,7.90
2023-03-26T12:30:28.022Z,7.60
2023-03-26T12:31:26.323Z,8.10
2023-03-26T12:32:35.667Z,7.00
2023-03-26T12:33:27.218Z,7.60
2023-03-26T12:34:26.211Z,7.40
2023-03-26T12:35:24.965Z,7.40
2023-03-26T12:36:24.962Z,7.90
2023-03-26T12:37:25.695Z,6.80
2023-03-26T12:38:24.859Z,7.00
2023-03-26T12:40:10.204Z,7.00
2023-03-26T12:40:24.707Z,7.60
2023-03-26T12:43:40.204Z,7.70
2023-03-26T12:45:00.084Z,7.70
2023-03-26T12:45:05.992Z,6.70
2023-03-26T12:47:58.375Z,7.20
2023-03-26T12:48:08.064Z,7.50
2023-03-26T12:48:13.635Z,7.40
2023-03-26T12:49:13.649Z,7.40
2023-03-26T12:50:13.484Z,8.00
2023-03-26T12:51:13.414Z,8.00
2023-03-26T12:52:13.325Z,7.80
2023-03-26T12:53:14.215Z,8.00
2023-03-26T12:54:13.268Z,7.60
2023-03-26T12:55:13.134Z,7.90
2023-03-26T12:56:13.106Z,7.20
2023-03-26T12:57:13.502Z,17.30
2023-03-26T12:58:13.171Z,8.80
2023-03-26T12:59:12.861Z,10.90
2023-03-26T13:00:12.865Z,10.40
2023-03-26T13:01:12.811Z,7.40
2023-03-26T13:02:12.761Z,8.50
2023-03-26T13:03:12.808Z,8.60
2023-03-26T13:04:12.581Z,8.50
2023-03-26T13:05:12.554Z,8.70
2023-03-26T13:06:12.517Z,8.10
2023-03-26T13:07:12.414Z,8.00
2023-03-26T13:08:12.368Z,8.90
2023-03-26T13:09:12.284Z,9.60
2023-03-26T13:10:12.209Z,8.30
2023-03-26T13:11:12.107Z,7.80
2023-03-26T13:12:12.114Z,8.50
2023-03-26T13:13:12.042Z,8.10
2023-03-26T13:14:11.991Z,8.20
2023-03-26T13:15:11.892Z,8.30
2023-03-26T13:16:11.853Z,8.00